Time,TemperatureF,DewpointF,PressureIn,WindDirection,WindDirectionDegrees,WindSpeedMPH,WindSpeedGustMPH,Humidity,HourlyPrecipIn,Conditions,Clouds,dailyrainin,SolarRadiationWatts/m^2,SoftwareType,DateUTC
2013-01-07 00:02:00,25.0,19.0,-100.00,SSE,161,4.0,11.0,79,0.00,,,0.00,0.000000,,2013-01-07 06:02:00,
2013-01-07 00:11:00,26.0,20.0,-100.00,SSE,166,5.0,11.0,79,0.00,,,0.00,0.000000,,2013-01-07 06:11:00,
2013-01-07 00:42:00,26.0,20.0,-100.00,SSE,166,5.0,11.0,79,0.00,,,0.00,0.000000,,2013-01-07 06:42:00,
2013-01-07 00:52:00,26.0,20.0,-100.00,SSE,166,5.0,11.0,79,0.00,,,0.00,0.000000,,2013-01-07 06:52:00,
2013-01-07 01:02:00,26.0,20.0,-100.00,SSE,166,5.0,11.0,79,0.00,,,0.00,0.000000,,2013-01-07 07:02:00,
2013-01-07 01:11:00,26.0,21.0,-100.00,SSE,168,5.0,13.0,81,0.00,,,0.00,0.000000,,2013-01-07 07:11:00,
2013-01-07 01:33:00,26.0,21.0,-100.00,SSE,168,5.0,13.0,81,0.00,,,0.00,0.000000,,2013-01-07 07:33:00,
2013-01-07 01:43:00,26.0,21.0,-100.00,SSE,168,5.0,13.0,81,0.00,,,0.00,0.000000,,2013-01-07 07:43:00,
2013-01-07 01:53:00,26.0,21.0,-100.00,SSE,168,5.0,13.0,81,0.00,,,0.00,0.000000,,2013-01-07 07:53:00,
2013-01-07 02:03:00,26.0,21.0,-100.00,SSE,168,5.0,13.0,81,0.00,,,0.00,0.000000,,2013-01-07 08:03:00,
2013-01-07 02:11:00,26.0,21.0,-100.00,South,179,6.0,12.0,82,0.00,,,0.00,0.000000,,2013-01-07 08:11:00,
2013-01-07 02:43:00,26.0,21.0,-100.00,South,179,6.0,12.0,82,0.00,,,0.00,0.000000,,2013-01-07 08:43:00,
2013-01-07 02:53:00,26.0,21.0,-100.00,South,179,6.0,12.0,82,0.00,,,0.00,0.000000,,2013-01-07 08:53:00,
2013-01-07 03:02:00,26.0,21.0,-100.00,South,179,6.0,12.0,82,0.00,,,0.00,0.000000,,2013-01-07 09:02:00,
2013-01-07 03:11:00,26.0,21.0,-100.00,SSW,193,3.0,15.0,80,0.00,,,0.00,0.000000,,2013-01-07 09:11:00,
2013-01-07 03:32:00,26.0,21.0,-100.00,SSW,193,3.0,15.0,80,0.00,,,0.00,0.000000,,2013-01-07 09:32:00,
2013-01-07 03:42:00,26.0,21.0,-100.00,SSW,193,3.0,15.0,80,0.00,,,0.00,0.000000,,2013-01-07 09:42:00,
2013-01-07 03:52:00,26.0,21.0,-100.00,SSW,193,3.0,15.0,80,0.00,,,0.00,0.000000,,2013-01-07 09:52:00,
2013-01-07 04:02:00,26.0,21.0,-100.00,SSW,193,3.0,15.0,80,0.00,,,0.00,0.000000,,2013-01-07 10:02:00,
2013-01-07 04:11:00,26.0,21.0,-100.00,South,169,5.0,11.0,82,0.00,,,0.00,0.000000,,2013-01-07 10:11:00,
2013-01-07 04:33:00,26.0,21.0,-100.00,South,169,5.0,11.0,82,0.00,,,0.00,0.000000,,2013-01-07 10:33:00,
2013-01-07 04:43:00,26.0,21.0,-100.00,South,169,5.0,11.0,82,0.00,,,0.00,0.000000,,2013-01-07 10:43:00,
2013-01-07 04:52:00,26.0,21.0,-100.00,South,169,5.0,11.0,82,0.00,,,0.00,0.000000,,2013-01-07 10:52:00,
2013-01-07 05:02:00,26.0,21.0,-100.00,South,169,5.0,11.0,82,0.00,,,0.00,0.000000,,2013-01-07 11:02:00,
2013-01-07 05:11:00,25.0,21.0,-100.00,South,173,4.0,12.0,84,0.00,,,0.00,0.000000,,2013-01-07 11:11:00,
2013-01-07 05:33:00,25.0,21.0,-100.00,South,173,4.0,12.0,84,0.00,,,0.00,0.000000,,2013-01-07 11:33:00,
2013-01-07 05:43:00,25.0,21.0,-100.00,South,173,4.0,12.0,84,0.00,,,0.00,0.000000,,2013-01-07 11:43:00,
2013-01-07 05:53:00,25.0,21.0,-100.00,South,173,4.0,12.0,84,0.00,,,0.00,0.000000,,2013-01-07 11:53:00,
2013-01-07 06:03:00,25.0,21.0,-100.00,South,173,4.0,12.0,84,0.00,,,0.00,0.000000,,2013-01-07 12:03:00,
2013-01-07 06:11:00,25.0,21.0,-100.00,South,175,2.0,7.0,85,0.00,,,0.00,0.000000,,2013-01-07 12:11:00,
2013-01-07 06:43:00,25.0,21.0,-100.00,South,175,2.0,7.0,85,0.00,,,0.00,0.000000,,2013-01-07 12:43:00,
2013-01-07 06:53:00,25.0,21.0,-100.00,South,175,2.0,7.0,85,0.00,,,0.00,0.000000,,2013-01-07 12:53:00,
2013-01-07 07:02:00,25.0,21.0,-100.00,South,175,2.0,7.0,85,0.00,,,0.00,0.000000,,2013-01-07 13:02:00,
2013-01-07 07:11:00,25.0,21.0,-100.00,South,173,2.0,5.0,86,0.00,,,0.00,0.000000,,2013-01-07 13:11:00,
2013-01-07 07:33:00,25.0,21.0,-100.00,South,173,2.0,5.0,86,0.00,,,0.00,0.000000,,2013-01-07 13:33:00,
2013-01-07 07:43:00,25.0,21.0,-100.00,South,173,2.0,5.0,86,0.00,,,0.00,0.000000,,2013-01-07 13:43:00,
2013-01-07 07:53:00,25.0,21.0,-100.00,South,173,2.0,5.0,86,0.00,,,0.00,0.000000,,2013-01-07 13:53:00,
2013-01-07 08:03:00,25.0,21.0,-100.00,South,173,2.0,5.0,86,0.00,,,0.00,0.000000,,2013-01-07 14:03:00,
2013-01-07 08:11:00,24.0,22.0,-100.00,SSE,159,1.0,4.0,90,0.00,,,0.00,2.000000,,2013-01-07 14:11:00,
2013-01-07 08:33:00,24.0,22.0,-100.00,SSE,159,1.0,4.0,90,0.00,,,0.00,2.000000,,2013-01-07 14:33:00,
2013-01-07 08:43:00,24.0,22.0,-100.00,SSE,159,1.0,4.0,90,0.00,,,0.00,2.000000,,2013-01-07 14:43:00,
2013-01-07 08:53:00,24.0,22.0,-100.00,SSE,159,1.0,4.0,90,0.00,,,0.00,2.000000,,2013-01-07 14:53:00,
2013-01-07 09:03:00,24.0,22.0,-100.00,SSE,159,1.0,4.0,90,0.00,,,0.00,2.000000,,2013-01-07 15:03:00,
2013-01-07 09:11:00,25.0,22.0,-100.00,SSE,157,2.0,5.0,88,0.00,,,0.00,33.000000,,2013-01-07 15:11:00,
2013-01-07 09:33:00,25.0,22.0,-100.00,SSE,157,2.0,5.0,88,0.00,,,0.00,33.000000,,2013-01-07 15:33:00,
2013-01-07 09:43:00,25.0,22.0,-100.00,SSE,157,2.0,5.0,88,0.00,,,0.00,33.000000,,2013-01-07 15:43:00,
2013-01-07 09:53:00,25.0,22.0,-100.00,SSE,157,2.0,5.0,88,0.00,,,0.00,33.000000,,2013-01-07 15:53:00,
2013-01-07 10:02:00,25.0,22.0,-100.00,SSE,157,2.0,5.0,88,0.00,,,0.00,33.000000,,2013-01-07 16:02:00,
2013-01-07 10:11:00,31.0,23.0,-100.00,South,181,3.0,6.0,71,0.00,,,0.00,147.000000,,2013-01-07 16:11:00,
2013-01-07 10:33:00,31.0,23.0,-100.00,South,181,3.0,6.0,71,0.00,,,0.00,147.000000,,2013-01-07 16:33:00,
2013-01-07 10:43:00,31.0,23.0,-100.00,South,181,3.0,6.0,71,0.00,,,0.00,147.000000,,2013-01-07 16:43:00,
2013-01-07 10:53:00,31.0,23.0,-100.00,South,181,3.0,6.0,71,0.00,,,0.00,147.000000,,2013-01-07 16:53:00,
2013-01-07 11:02:00,31.0,23.0,-100.00,South,181,3.0,6.0,71,0.00,,,0.00,147.000000,,2013-01-07 17:02:00,
2013-01-07 11:11:00,33.0,24.0,-100.00,WSW,238,1.0,5.0,68,0.00,,,0.00,173.000000,,2013-01-07 17:11:00,
2013-01-07 11:33:00,33.0,24.0,-100.00,WSW,238,1.0,5.0,68,0.00,,,0.00,173.000000,,2013-01-07 17:33:00,
2013-01-07 11:43:00,33.0,24.0,-100.00,WSW,238,1.0,5.0,68,0.00,,,0.00,173.000000,,2013-01-07 17:43:00,
2013-01-07 11:53:00,33.0,24.0,-100.00,WSW,238,1.0,5.0,68,0.00,,,0.00,173.000000,,2013-01-07 17:53:00,
2013-01-07 12:03:00,33.0,24.0,-100.00,WSW,238,1.0,5.0,68,0.00,,,0.00,173.000000,,2013-01-07 18:03:00,
2013-01-07 12:11:00,36.0,25.0,-100.00,SW,215,2.0,4.0,64,0.00,,,0.00,273.000000,,2013-01-07 18:11:00,
2013-01-07 12:33:00,36.0,25.0,-100.00,SW,215,2.0,4.0,64,0.00,,,0.00,273.000000,,2013-01-07 18:33:00,
2013-01-07 12:43:00,36.0,25.0,-100.00,SW,215,2.0,4.0,64,0.00,,,0.00,273.000000,,2013-01-07 18:43:00,
2013-01-07 12:53:00,36.0,25.0,-100.00,SW,215,2.0,4.0,64,0.00,,,0.00,273.000000,,2013-01-07 18:53:00,
2013-01-07 13:03:00,36.0,25.0,-100.00,SW,215,2.0,4.0,64,0.00,,,0.00,273.000000,,2013-01-07 19:03:00,
2013-01-07 13:11:00,39.0,25.0,-100.00,SW,233,2.0,4.0,57,0.00,,,0.00,367.000000,,2013-01-07 19:11:00,
2013-01-07 13:43:00,39.0,25.0,-100.00,SW,233,2.0,4.0,57,0.00,,,0.00,367.000000,,2013-01-07 19:43:00,
2013-01-07 13:53:00,39.0,25.0,-100.00,SW,233,2.0,4.0,57,0.00,,,0.00,367.000000,,2013-01-07 19:53:00,
2013-01-07 14:03:00,39.0,25.0,-100.00,SW,233,2.0,4.0,57,0.00,,,0.00,367.000000,,2013-01-07 20:03:00,
2013-01-07 14:11:00,38.0,26.0,-100.00,WSW,237,3.0,5.0,61,0.00,,,0.00,332.000000,,2013-01-07 20:11:00,
2013-01-07 14:43:00,38.0,26.0,-100.00,WSW,237,3.0,5.0,61,0.00,,,0.00,332.000000,,2013-01-07 20:43:00,
2013-01-07 14:53:00,38.0,26.0,-100.00,WSW,237,3.0,5.0,61,0.00,,,0.00,332.000000,,2013-01-07 20:53:00,
2013-01-07 15:03:00,38.0,26.0,-100.00,WSW,237,3.0,5.0,61,0.00,,,0.00,332.000000,,2013-01-07 21:03:00,
2013-01-07 15:11:00,37.0,26.0,-100.00,SW,222,2.0,5.0,64,0.00,,,0.00,236.000000,,2013-01-07 21:11:00,
2013-01-07 15:33:00,37.0,26.0,-100.00,SW,222,2.0,5.0,64,0.00,,,0.00,236.000000,,2013-01-07 21:33:00,
2013-01-07 15:43:00,37.0,26.0,-100.00,SW,222,2.0,5.0,64,0.00,,,0.00,236.000000,,2013-01-07 21:43:00,
2013-01-07 15:53:00,37.0,26.0,-100.00,SW,222,2.0,5.0,64,0.00,,,0.00,236.000000,,2013-01-07 21:53:00,
2013-01-07 16:02:00,37.0,26.0,-100.00,SW,222,2.0,5.0,64,0.00,,,0.00,236.000000,,2013-01-07 22:02:00,
2013-01-07 16:11:00,38.0,25.0,-100.00,SSW,213,1.0,3.0,59,0.00,,,0.00,191.000000,,2013-01-07 22:11:00,
2013-01-07 16:43:00,38.0,25.0,-100.00,SSW,213,1.0,3.0,59,0.00,,,0.00,191.000000,,2013-01-07 22:43:00,
2013-01-07 16:53:00,38.0,25.0,-100.00,SSW,213,1.0,3.0,59,0.00,,,0.00,191.000000,,2013-01-07 22:53:00,
2013-01-07 17:02:00,38.0,25.0,-100.00,SSW,213,1.0,3.0,59,0.00,,,0.00,191.000000,,2013-01-07 23:02:00,
2013-01-07 17:11:00,28.0,23.0,-100.00,NNW,348,2.0,4.0,81,0.00,,,0.00,50.000000,,2013-01-07 23:11:00,
2013-01-07 17:33:00,28.0,23.0,-100.00,NNW,348,2.0,4.0,81,0.00,,,0.00,50.000000,,2013-01-07 23:33:00,
2013-01-07 17:43:00,28.0,23.0,-100.00,NNW,348,2.0,4.0,81,0.00,,,0.00,50.000000,,2013-01-07 23:43:00,
2013-01-07 17:53:00,28.0,23.0,-100.00,NNW,348,2.0,4.0,81,0.00,,,0.00,50.000000,,2013-01-07 23:53:00,
2013-01-07 18:02:00,28.0,23.0,-100.00,NNW,348,2.0,4.0,81,0.00,,,0.00,50.000000,,2013-01-08 00:02:00,
2013-01-07 18:11:00,23.0,21.0,-100.00,North,8,2.0,5.0,93,0.00,,,0.00,1.000000,,2013-01-08 00:11:00,
2013-01-07 18:33:00,23.0,21.0,-100.00,North,8,2.0,5.0,93,0.00,,,0.00,1.000000,,2013-01-08 00:33:00,
2013-01-07 18:43:00,23.0,21.0,-100.00,North,8,2.0,5.0,93,0.00,,,0.00,1.000000,,2013-01-08 00:43:00,
2013-01-07 18:53:00,23.0,21.0,-100.00,North,8,2.0,5.0,93,0.00,,,0.00,1.000000,,2013-01-08 00:53:00,
2013-01-07 19:03:00,23.0,21.0,-100.00,North,8,2.0,5.0,93,0.00,,,0.00,1.000000,,2013-01-08 01:03:00,
2013-01-07 19:11:00,23.0,22.0,-100.00,ENE,75,4.0,6.0,95,0.00,,,0.00,0.000000,,2013-01-08 01:11:00,
2013-01-07 19:33:00,23.0,22.0,-100.00,ENE,75,4.0,6.0,95,0.00,,,0.00,0.000000,,2013-01-08 01:33:00,
2013-01-07 19:42:00,23.0,22.0,-100.00,ENE,75,4.0,6.0,95,0.00,,,0.00,0.000000,,2013-01-08 01:42:00,
2013-01-07 19:52:00,23.0,22.0,-100.00,ENE,75,4.0,6.0,95,0.00,,,0.00,0.000000,,2013-01-08 01:52:00,
2013-01-07 20:02:00,23.0,22.0,-100.00,ENE,75,4.0,6.0,95,0.00,,,0.00,0.000000,,2013-01-08 02:02:00,
2013-01-07 20:11:00,24.0,22.0,-100.00,North,359,2.0,6.0,91,0.00,,,0.00,0.000000,,2013-01-08 02:11:00,
2013-01-07 20:33:00,24.0,22.0,-100.00,North,359,2.0,6.0,91,0.00,,,0.00,0.000000,,2013-01-08 02:33:00,
2013-01-07 20:43:00,24.0,22.0,-100.00,North,359,2.0,6.0,91,0.00,,,0.00,0.000000,,2013-01-08 02:43:00,
2013-01-07 20:53:00,24.0,22.0,-100.00,North,359,2.0,6.0,91,0.00,,,0.00,0.000000,,2013-01-08 02:53:00,
2013-01-07 21:03:00,24.0,22.0,-100.00,North,359,2.0,6.0,91,0.00,,,0.00,0.000000,,2013-01-08 03:03:00,
2013-01-07 21:11:00,23.0,22.0,-100.00,NE,41,2.0,6.0,94,0.00,,,0.00,0.000000,,2013-01-08 03:11:00,
2013-01-07 21:33:00,23.0,22.0,-100.00,NE,41,2.0,6.0,94,0.00,,,0.00,0.000000,,2013-01-08 03:33:00,
2013-01-07 21:43:00,23.0,22.0,-100.00,NE,41,2.0,6.0,94,0.00,,,0.00,0.000000,,2013-01-08 03:43:00,
2013-01-07 21:53:00,23.0,22.0,-100.00,NE,41,2.0,6.0,94,0.00,,,0.00,0.000000,,2013-01-08 03:53:00,
2013-01-07 22:02:00,23.0,22.0,-100.00,NE,41,2.0,6.0,94,0.00,,,0.00,0.000000,,2013-01-08 04:02:00,
2013-01-07 22:11:00,22.0,21.0,-100.00,NNE,16,2.0,6.0,97,0.00,,,0.00,0.000000,,2013-01-08 04:11:00,
2013-01-07 22:32:00,22.0,21.0,-100.00,NNE,16,2.0,6.0,97,0.00,,,0.00,0.000000,,2013-01-08 04:32:00,
2013-01-07 22:43:00,22.0,21.0,-100.00,NNE,16,2.0,6.0,97,0.00,,,0.00,0.000000,,2013-01-08 04:43:00,
2013-01-07 22:52:00,22.0,21.0,-100.00,NNE,16,2.0,6.0,97,0.00,,,0.00,0.000000,,2013-01-08 04:52:00,
2013-01-07 23:03:00,22.0,21.0,-100.00,NNE,16,2.0,6.0,97,0.00,,,0.00,0.000000,,2013-01-08 05:03:00,
2013-01-07 23:11:00,19.0,19.0,-100.00,NNW,339,1.0,5.0,100,0.00,,,0.00,0.000000,,2013-01-08 05:11:00,
2013-01-07 23:33:00,19.0,19.0,-100.00,NNW,339,1.0,5.0,100,0.00,,,0.00,0.000000,,2013-01-08 05:33:00,
2013-01-07 23:43:00,19.0,19.0,-100.00,NNW,339,1.0,5.0,100,0.00,,,0.00,0.000000,,2013-01-08 05:43:00,
2013-01-07 23:53:00,19.0,19.0,-100.00,NNW,339,1.0,5.0,100,0.00,,,0.00,0.000000,,2013-01-08 05:53:00,